sensor_id;sensor_type;location;lat;lon;timestamp;P1;durP1;ratioP1;P2;durP2;ratioP2
36547;SDS011;22551;52.206;4.856;2024-02-16T00:00:36;5.00;;;2.58;;
36547;SDS011;22551;52.206;4.856;2024-02-16T00:05:39;5.43;;;2.67;;
36547;SDS011;22551;52.206;4.856;2024-02-16T00:10:42;13.50;;;3.35;;
36547;SDS011;22551;52.206;4.856;2024-02-16T00:15:44;5.80;;;2.55;;
36547;SDS011;22551;52.206;4.856;2024-02-16T00:20:46;6.68;;;2.10;;
36547;SDS011;22551;52.206;4.856;2024-02-16T00:25:50;2.83;;;1.95;;
36547;SDS011;22551;52.206;4.856;2024-02-16T00:30:52;5.18;;;3.20;;
36547;SDS011;22551;52.206;4.856;2024-02-16T00:35:57;7.28;;;2.60;;
36547;SDS011;22551;52.206;4.856;2024-02-16T00:41:01;4.82;;;2.30;;
36547;SDS011;22551;52.206;4.856;2024-02-16T00:46:03;12.18;;;2.22;;
36547;SDS011;22551;52.206;4.856;2024-02-16T00:51:07;2.83;;;2.28;;
36547;SDS011;22551;52.206;4.856;2024-02-16T00:56:10;4.35;;;2.10;;
36547;SDS011;22551;52.206;4.856;2024-02-16T01:01:12;4.22;;;2.45;;
36547;SDS011;22551;52.206;4.856;2024-02-16T01:06:14;5.03;;;2.15;;
36547;SDS011;22551;52.206;4.856;2024-02-16T01:11:18;6.55;;;2.50;;
36547;SDS011;22551;52.206;4.856;2024-02-16T01:16:20;3.10;;;2.20;;
36547;SDS011;22551;52.206;4.856;2024-02-16T01:21:22;5.07;;;2.80;;
36547;SDS011;22551;52.206;4.856;2024-02-16T01:26:26;4.32;;;2.30;;
36547;SDS011;22551;52.206;4.856;2024-02-16T01:31:28;4.20;;;2.00;;
36547;SDS011;22551;52.206;4.856;2024-02-16T01:36:30;5.25;;;2.10;;
36547;SDS011;22551;52.206;4.856;2024-02-16T01:41:33;5.32;;;2.83;;
36547;SDS011;22551;52.206;4.856;2024-02-16T01:46:39;2.88;;;2.10;;
36547;SDS011;22551;52.206;4.856;2024-02-16T01:51:42;5.70;;;2.55;;
36547;SDS011;22551;52.206;4.856;2024-02-16T01:56:47;5.73;;;2.07;;
36547;SDS011;22551;52.206;4.856;2024-02-16T02:01:50;8.55;;;2.97;;
36547;SDS011;22551;52.206;4.856;2024-02-16T02:06:52;4.43;;;2.03;;
36547;SDS011;22551;52.206;4.856;2024-02-16T02:11:56;4.18;;;2.80;;
36547;SDS011;22551;52.206;4.856;2024-02-16T02:16:58;4.38;;;2.55;;
36547;SDS011;22551;52.206;4.856;2024-02-16T02:22:01;3.50;;;2.47;;
36547;SDS011;22551;52.206;4.856;2024-02-16T02:27:04;3.58;;;2.40;;
36547;SDS011;22551;52.206;4.856;2024-02-16T02:32:07;5.68;;;2.55;;
36547;SDS011;22551;52.206;4.856;2024-02-16T02:37:09;3.30;;;2.20;;
36547;SDS011;22551;52.206;4.856;2024-02-16T02:42:13;6.80;;;2.60;;
36547;SDS011;22551;52.206;4.856;2024-02-16T02:47:16;4.60;;;2.40;;
36547;SDS011;22551;52.206;4.856;2024-02-16T02:52:19;4.15;;;2.30;;
36547;SDS011;22551;52.206;4.856;2024-02-16T02:57:23;2.55;;;1.90;;
36547;SDS011;22551;52.206;4.856;2024-02-16T03:02:25;5.70;;;2.50;;
36547;SDS011;22551;52.206;4.856;2024-02-16T03:07:27;6.68;;;2.60;;
36547;SDS011;22551;52.206;4.856;2024-02-16T03:12:31;2.97;;;2.03;;
36547;SDS011;22551;52.206;4.856;2024-02-16T03:17:33;7.15;;;2.17;;
36547;SDS011;22551;52.206;4.856;2024-02-16T03:22:35;4.50;;;2.50;;
36547;SDS011;22551;52.206;4.856;2024-02-16T03:27:39;8.70;;;2.78;;
36547;SDS011;22551;52.206;4.856;2024-02-16T03:43:04;3.75;;;2.10;;
36547;SDS011;22551;52.206;4.856;2024-02-16T04:19:09;3.70;;;2.30;;
36547;SDS011;22551;52.206;4.856;2024-02-16T04:24:11;5.70;;;2.40;;
36547;SDS011;22551;52.206;4.856;2024-02-16T04:29:13;5.20;;;2.78;;
36547;SDS011;22551;52.206;4.856;2024-02-16T04:39:28;4.15;;;2.22;;
36547;SDS011;22551;52.206;4.856;2024-02-16T04:49:40;4.05;;;2.50;;
36547;SDS011;22551;52.206;4.856;2024-02-16T04:54:44;4.10;;;2.50;;
36547;SDS011;22551;52.206;4.856;2024-02-16T04:59:46;7.78;;;2.65;;
36547;SDS011;22551;52.206;4.856;2024-02-16T05:04:48;6.35;;;2.42;;
36547;SDS011;22551;52.206;4.856;2024-02-16T05:09:52;4.63;;;2.72;;
36547;SDS011;22551;52.206;4.856;2024-02-16T05:14:58;2.97;;;1.98;;
36547;SDS011;22551;52.206;4.856;2024-02-16T05:20:00;4.07;;;2.53;;
36547;SDS011;22551;52.206;4.856;2024-02-16T05:25:04;5.18;;;2.80;;
36547;SDS011;22551;52.206;4.856;2024-02-16T05:30:08;5.65;;;2.47;;
36547;SDS011;22551;52.206;4.856;2024-02-16T05:35:14;8.20;;;2.53;;
36547;SDS011;22551;52.206;4.856;2024-02-16T05:40:18;5.75;;;2.72;;
36547;SDS011;22551;52.206;4.856;2024-02-16T05:45:22;4.90;;;2.60;;
36547;SDS011;22551;52.206;4.856;2024-02-16T05:50:24;4.95;;;2.15;;
36547;SDS011;22551;52.206;4.856;2024-02-16T05:55:27;13.10;;;2.95;;
36547;SDS011;22551;52.206;4.856;2024-02-16T06:00:31;6.72;;;2.20;;
36547;SDS011;22551;52.206;4.856;2024-02-16T06:05:34;5.18;;;2.33;;
36547;SDS011;22551;52.206;4.856;2024-02-16T06:10:38;7.47;;;2.90;;
36547;SDS011;22551;52.206;4.856;2024-02-16T06:15:41;4.88;;;2.78;;
36547;SDS011;22551;52.206;4.856;2024-02-16T06:20:45;3.72;;;2.40;;
36547;SDS011;22551;52.206;4.856;2024-02-16T06:25:49;5.85;;;2.80;;
36547;SDS011;22551;52.206;4.856;2024-02-16T06:30:51;4.40;;;3.00;;
36547;SDS011;22551;52.206;4.856;2024-02-16T06:35:53;4.35;;;3.13;;
36547;SDS011;22551;52.206;4.856;2024-02-16T06:40:57;6.40;;;2.53;;
36547;SDS011;22551;52.206;4.856;2024-02-16T06:45:59;7.30;;;2.80;;
36547;SDS011;22551;52.206;4.856;2024-02-16T06:51:01;5.22;;;2.90;;
36547;SDS011;22551;52.206;4.856;2024-02-16T06:56:05;6.85;;;3.40;;
36547;SDS011;22551;52.206;4.856;2024-02-16T07:01:09;6.30;;;3.03;;
36547;SDS011;22551;52.206;4.856;2024-02-16T07:06:11;6.90;;;3.40;;
36547;SDS011;22551;52.206;4.856;2024-02-16T07:11:15;5.00;;;2.97;;
36547;SDS011;22551;52.206;4.856;2024-02-16T07:16:20;7.75;;;3.95;;
36547;SDS011;22551;52.206;4.856;2024-02-16T07:21:23;5.45;;;3.25;;
36547;SDS011;22551;52.206;4.856;2024-02-16T07:26:29;5.70;;;3.50;;
36547;SDS011;22551;52.206;4.856;2024-02-16T07:31:32;6.90;;;3.38;;
36547;SDS011;22551;52.206;4.856;2024-02-16T07:46:57;6.05;;;3.75;;
36547;SDS011;22551;52.206;4.856;2024-02-16T07:51:59;5.93;;;3.30;;
36547;SDS011;22551;52.206;4.856;2024-02-16T07:57:01;5.18;;;2.83;;
36547;SDS011;22551;52.206;4.856;2024-02-16T08:02:07;7.18;;;3.85;;
36547;SDS011;22551;52.206;4.856;2024-02-16T08:07:09;7.72;;;3.40;;
36547;SDS011;22551;52.206;4.856;2024-02-16T08:12:11;8.05;;;3.50;;
36547;SDS011;22551;52.206;4.856;2024-02-16T08:17:15;6.15;;;3.00;;
36547;SDS011;22551;52.206;4.856;2024-02-16T08:22:18;9.45;;;3.80;;
36547;SDS011;22551;52.206;4.856;2024-02-16T08:27:20;5.63;;;3.20;;
36547;SDS011;22551;52.206;4.856;2024-02-16T08:32:24;7.18;;;3.35;;
36547;SDS011;22551;52.206;4.856;2024-02-16T08:37:26;7.65;;;3.75;;
36547;SDS011;22551;52.206;4.856;2024-02-16T08:42:29;8.35;;;3.47;;
36547;SDS011;22551;52.206;4.856;2024-02-16T08:47:32;9.85;;;4.03;;
36547;SDS011;22551;52.206;4.856;2024-02-16T08:52:34;6.93;;;3.75;;
36547;SDS011;22551;52.206;4.856;2024-02-16T08:57:37;10.90;;;4.45;;
36547;SDS011;22551;52.206;4.856;2024-02-16T09:02:40;9.63;;;4.05;;
36547;SDS011;22551;52.206;4.856;2024-02-16T09:07:42;7.53;;;4.05;;
36547;SDS011;22551;52.206;4.856;2024-02-16T09:12:44;9.80;;;4.85;;
36547;SDS011;22551;52.206;4.856;2024-02-16T09:17:50;7.40;;;4.22;;
36547;SDS011;22551;52.206;4.856;2024-02-16T09:23:03;10.13;;;4.47;;
36547;SDS011;22551;52.206;4.856;2024-02-16T09:28:07;8.70;;;4.93;;
36547;SDS011;22551;52.206;4.856;2024-02-16T09:33:11;10.57;;;5.90;;
36547;SDS011;22551;52.206;4.856;2024-02-16T09:38:13;10.83;;;4.97;;
36547;SDS011;22551;52.206;4.856;2024-02-16T09:43:25;15.15;;;4.95;;
36547;SDS011;22551;52.206;4.856;2024-02-16T09:48:30;11.23;;;4.97;;
36547;SDS011;22551;52.206;4.856;2024-02-16T09:53:32;13.30;;;6.15;;
36547;SDS011;22551;52.206;4.856;2024-02-16T09:58:34;24.92;;;8.05;;
36547;SDS011;22551;52.206;4.856;2024-02-16T10:03:38;22.92;;;8.15;;
36547;SDS011;22551;52.206;4.856;2024-02-16T10:08:48;27.13;;;8.30;;
36547;SDS011;22551;52.206;4.856;2024-02-16T10:13:54;31.02;;;9.25;;
36547;SDS011;22551;52.206;4.856;2024-02-16T10:19:05;25.55;;;8.52;;
36547;SDS011;22551;52.206;4.856;2024-02-16T10:24:10;23.08;;;8.35;;
36547;SDS011;22551;52.206;4.856;2024-02-16T10:29:17;21.15;;;8.35;;
36547;SDS011;22551;52.206;4.856;2024-02-16T10:34:22;24.67;;;6.18;;
36547;SDS011;22551;52.206;4.856;2024-02-16T10:39:26;13.27;;;6.22;;
36547;SDS011;22551;52.206;4.856;2024-02-16T10:44:28;15.55;;;6.13;;
36547;SDS011;22551;52.206;4.856;2024-02-16T10:49:32;12.65;;;5.55;;
36547;SDS011;22551;52.206;4.856;2024-02-16T10:54:34;12.65;;;5.47;;
36547;SDS011;22551;52.206;4.856;2024-02-16T10:59:41;10.52;;;5.57;;
36547;SDS011;22551;52.206;4.856;2024-02-16T11:04:47;13.90;;;4.75;;
36547;SDS011;22551;52.206;4.856;2024-02-16T11:09:50;14.35;;;4.07;;
36547;SDS011;22551;52.206;4.856;2024-02-16T11:14:52;9.93;;;4.45;;
36547;SDS011;22551;52.206;4.856;2024-02-16T11:20:00;8.57;;;3.75;;
36547;SDS011;22551;52.206;4.856;2024-02-16T11:25:04;8.20;;;4.50;;
36547;SDS011;22551;52.206;4.856;2024-02-16T11:30:10;10.70;;;4.05;;
36547;SDS011;22551;52.206;4.856;2024-02-16T11:35:14;6.78;;;4.35;;
36547;SDS011;22551;52.206;4.856;2024-02-16T11:40:16;12.87;;;4.37;;
36547;SDS011;22551;52.206;4.856;2024-02-16T11:45:19;7.63;;;3.55;;
36547;SDS011;22551;52.206;4.856;2024-02-16T11:50:22;8.95;;;4.30;;
36547;SDS011;22551;52.206;4.856;2024-02-16T11:55:24;9.63;;;4.32;;
36547;SDS011;22551;52.206;4.856;2024-02-16T12:00:27;6.20;;;3.42;;
36547;SDS011;22551;52.206;4.856;2024-02-16T12:05:30;6.15;;;3.63;;
36547;SDS011;22551;52.206;4.856;2024-02-16T12:10:32;5.47;;;2.97;;
36547;SDS011;22551;52.206;4.856;2024-02-16T12:15:37;7.43;;;2.80;;
36547;SDS011;22551;52.206;4.856;2024-02-16T12:20:41;5.78;;;2.92;;
36547;SDS011;22551;52.206;4.856;2024-02-16T12:25:47;5.75;;;3.03;;
36547;SDS011;22551;52.206;4.856;2024-02-16T12:30:49;6.07;;;3.05;;
36547;SDS011;22551;52.206;4.856;2024-02-16T12:35:53;9.40;;;2.90;;
36547;SDS011;22551;52.206;4.856;2024-02-16T12:40:55;5.72;;;2.20;;
36547;SDS011;22551;52.206;4.856;2024-02-16T12:45:57;2.92;;;1.92;;
36547;SDS011;22551;52.206;4.856;2024-02-16T12:51:06;6.60;;;2.20;;
36547;SDS011;22551;52.206;4.856;2024-02-16T12:56:08;6.38;;;2.00;;
36547;SDS011;22551;52.206;4.856;2024-02-16T13:01:11;6.45;;;2.10;;
36547;SDS011;22551;52.206;4.856;2024-02-16T13:06:15;4.00;;;1.70;;
36547;SDS011;22551;52.206;4.856;2024-02-16T13:11:17;7.30;;;2.35;;
36547;SDS011;22551;52.206;4.856;2024-02-16T13:16:19;5.70;;;2.50;;
36547;SDS011;22551;52.206;4.856;2024-02-16T13:21:23;9.73;;;3.22;;
36547;SDS011;22551;52.206;4.856;2024-02-16T13:26:25;11.65;;;3.47;;
36547;SDS011;22551;52.206;4.856;2024-02-16T13:31:28;11.13;;;3.60;;
36547;SDS011;22551;52.206;4.856;2024-02-16T13:36:34;11.75;;;3.80;;
36547;SDS011;22551;52.206;4.856;2024-02-16T13:41:36;8.65;;;3.65;;
36547;SDS011;22551;52.206;4.856;2024-02-16T13:46:38;11.23;;;4.07;;
36547;SDS011;22551;52.206;4.856;2024-02-16T13:51:42;12.30;;;4.60;;
36547;SDS011;22551;52.206;4.856;2024-02-16T13:56:45;7.57;;;3.80;;
36547;SDS011;22551;52.206;4.856;2024-02-16T14:01:47;8.20;;;3.97;;
36547;SDS011;22551;52.206;4.856;2024-02-16T14:06:51;9.77;;;4.90;;
36547;SDS011;22551;52.206;4.856;2024-02-16T14:11:54;7.78;;;4.60;;
36547;SDS011;22551;52.206;4.856;2024-02-16T14:16:58;11.77;;;4.97;;
36547;SDS011;22551;52.206;4.856;2024-02-16T14:22:02;9.00;;;5.00;;
36547;SDS011;22551;52.206;4.856;2024-02-16T14:27:07;8.95;;;4.95;;
36547;SDS011;22551;52.206;4.856;2024-02-16T14:32:09;9.77;;;5.45;;
36547;SDS011;22551;52.206;4.856;2024-02-16T14:37:12;9.95;;;5.22;;
36547;SDS011;22551;52.206;4.856;2024-02-16T14:47:18;13.90;;;6.15;;
36547;SDS011;22551;52.206;4.856;2024-02-16T14:52:23;8.82;;;4.55;;
36547;SDS011;22551;52.206;4.856;2024-02-16T14:57:25;8.65;;;4.78;;
36547;SDS011;22551;52.206;4.856;2024-02-16T15:02:28;7.40;;;4.78;;
36547;SDS011;22551;52.206;4.856;2024-02-16T15:13:48;9.95;;;4.70;;
36547;SDS011;22551;52.206;4.856;2024-02-16T15:18:51;10.88;;;4.90;;
36547;SDS011;22551;52.206;4.856;2024-02-16T15:23:53;9.52;;;4.35;;
36547;SDS011;22551;52.206;4.856;2024-02-16T15:28:57;6.72;;;4.00;;
36547;SDS011;22551;52.206;4.856;2024-02-16T15:33:59;9.68;;;4.45;;
36547;SDS011;22551;52.206;4.856;2024-02-16T15:39:02;6.38;;;4.57;;
36547;SDS011;22551;52.206;4.856;2024-02-16T15:44:06;7.63;;;4.32;;
36547;SDS011;22551;52.206;4.856;2024-02-16T15:49:08;10.02;;;5.18;;
36547;SDS011;22551;52.206;4.856;2024-02-16T15:54:10;6.55;;;4.38;;
36547;SDS011;22551;52.206;4.856;2024-02-16T15:59:14;10.73;;;4.03;;
36547;SDS011;22551;52.206;4.856;2024-02-16T16:04:16;9.25;;;4.15;;
36547;SDS011;22551;52.206;4.856;2024-02-16T16:09:18;9.40;;;4.25;;
36547;SDS011;22551;52.206;4.856;2024-02-16T16:14:22;7.45;;;4.03;;
36547;SDS011;22551;52.206;4.856;2024-02-16T16:19:25;11.90;;;4.50;;
36547;SDS011;22551;52.206;4.856;2024-02-16T16:24:28;8.95;;;4.47;;
36547;SDS011;22551;52.206;4.856;2024-02-16T16:29:31;9.38;;;3.35;;
36547;SDS011;22551;52.206;4.856;2024-02-16T16:34:34;8.05;;;4.55;;
36547;SDS011;22551;52.206;4.856;2024-02-16T16:39:36;10.20;;;4.43;;
36547;SDS011;22551;52.206;4.856;2024-02-16T16:44:39;10.25;;;4.15;;
36547;SDS011;22551;52.206;4.856;2024-02-16T16:49:41;9.50;;;3.60;;
36547;SDS011;22551;52.206;4.856;2024-02-16T16:54:44;10.15;;;4.20;;
36547;SDS011;22551;52.206;4.856;2024-02-16T16:59:48;7.82;;;3.53;;
36547;SDS011;22551;52.206;4.856;2024-02-16T17:04:50;8.30;;;3.90;;
36547;SDS011;22551;52.206;4.856;2024-02-16T17:09:52;6.15;;;3.30;;
36547;SDS011;22551;52.206;4.856;2024-02-16T17:20:00;9.43;;;5.20;;
36547;SDS011;22551;52.206;4.856;2024-02-16T17:25:03;9.93;;;4.70;;
36547;SDS011;22551;52.206;4.856;2024-02-16T17:30:10;7.20;;;3.85;;
36547;SDS011;22551;52.206;4.856;2024-02-16T17:35:14;10.00;;;3.55;;
36547;SDS011;22551;52.206;4.856;2024-02-16T17:40:16;8.93;;;4.00;;
36547;SDS011;22551;52.206;4.856;2024-02-16T17:45:20;10.50;;;2.72;;
36547;SDS011;22551;52.206;4.856;2024-02-16T17:50:22;5.43;;;2.72;;
36547;SDS011;22551;52.206;4.856;2024-02-16T17:55:26;6.80;;;3.35;;
36547;SDS011;22551;52.206;4.856;2024-02-16T18:00:29;8.18;;;3.88;;
36547;SDS011;22551;52.206;4.856;2024-02-16T18:05:31;7.68;;;3.63;;
36547;SDS011;22551;52.206;4.856;2024-02-16T18:10:33;8.77;;;4.18;;
36547;SDS011;22551;52.206;4.856;2024-02-16T18:15:37;7.32;;;3.17;;
36547;SDS011;22551;52.206;4.856;2024-02-16T18:20:39;6.20;;;2.70;;
36547;SDS011;22551;52.206;4.856;2024-02-16T18:25:42;12.70;;;3.30;;
36547;SDS011;22551;52.206;4.856;2024-02-16T18:30:45;8.98;;;2.17;;
36547;SDS011;22551;52.206;4.856;2024-02-16T18:35:47;8.25;;;3.10;;
36547;SDS011;22551;52.206;4.856;2024-02-16T18:40:49;5.95;;;2.80;;
36547;SDS011;22551;52.206;4.856;2024-02-16T18:45:53;10.85;;;2.60;;
36547;SDS011;22551;52.206;4.856;2024-02-16T18:50:56;8.00;;;2.67;;
36547;SDS011;22551;52.206;4.856;2024-02-16T18:55:58;12.68;;;3.40;;
36547;SDS011;22551;52.206;4.856;2024-02-16T19:01:02;16.42;;;5.00;;
36547;SDS011;22551;52.206;4.856;2024-02-16T19:06:05;5.53;;;2.85;;
36547;SDS011;22551;52.206;4.856;2024-02-16T19:11:07;14.05;;;3.25;;
36547;SDS011;22551;52.206;4.856;2024-02-16T19:16:11;5.80;;;3.38;;
36547;SDS011;22551;52.206;4.856;2024-02-16T19:21:13;8.85;;;3.92;;
36547;SDS011;22551;52.206;4.856;2024-02-16T19:26:15;11.65;;;4.00;;
36547;SDS011;22551;52.206;4.856;2024-02-16T19:31:19;6.38;;;3.10;;
36547;SDS011;22551;52.206;4.856;2024-02-16T19:36:21;10.57;;;3.45;;
36547;SDS011;22551;52.206;4.856;2024-02-16T19:41:23;12.82;;;3.50;;
36547;SDS011;22551;52.206;4.856;2024-02-16T19:46:26;13.98;;;4.03;;
36547;SDS011;22551;52.206;4.856;2024-02-16T19:51:29;8.15;;;2.75;;
36547;SDS011;22551;52.206;4.856;2024-02-16T19:56:31;10.82;;;3.53;;
36547;SDS011;22551;52.206;4.856;2024-02-16T20:01:34;9.50;;;3.58;;
36547;SDS011;22551;52.206;4.856;2024-02-16T20:06:36;21.73;;;4.28;;
36547;SDS011;22551;52.206;4.856;2024-02-16T20:11:38;12.35;;;4.05;;
36547;SDS011;22551;52.206;4.856;2024-02-16T20:16:42;13.57;;;3.70;;
36547;SDS011;22551;52.206;4.856;2024-02-16T20:21:44;11.48;;;3.30;;
36547;SDS011;22551;52.206;4.856;2024-02-16T20:26:46;7.28;;;3.10;;
36547;SDS011;22551;52.206;4.856;2024-02-16T20:31:50;10.73;;;3.05;;
36547;SDS011;22551;52.206;4.856;2024-02-16T20:36:52;12.40;;;3.22;;
36547;SDS011;22551;52.206;4.856;2024-02-16T20:41:54;11.55;;;4.60;;
36547;SDS011;22551;52.206;4.856;2024-02-16T20:46:57;6.45;;;3.20;;
36547;SDS011;22551;52.206;4.856;2024-02-16T20:52:00;12.20;;;4.40;;
36547;SDS011;22551;52.206;4.856;2024-02-16T20:57:02;13.25;;;5.20;;
36547;SDS011;22551;52.206;4.856;2024-02-16T21:02:08;9.23;;;4.72;;
36547;SDS011;22551;52.206;4.856;2024-02-16T21:07:10;11.63;;;4.72;;
36547;SDS011;22551;52.206;4.856;2024-02-16T21:12:12;11.32;;;4.10;;
36547;SDS011;22551;52.206;4.856;2024-02-16T21:17:16;7.13;;;4.05;;
36547;SDS011;22551;52.206;4.856;2024-02-16T21:22:18;11.75;;;4.70;;
36547;SDS011;22551;52.206;4.856;2024-02-16T21:27:20;12.68;;;4.70;;
36547;SDS011;22551;52.206;4.856;2024-02-16T21:32:25;15.38;;;5.45;;
36547;SDS011;22551;52.206;4.856;2024-02-16T21:37:28;13.40;;;6.60;;
36547;SDS011;22551;52.206;4.856;2024-02-16T21:42:30;14.02;;;6.43;;
36547;SDS011;22551;52.206;4.856;2024-02-16T21:47:34;13.82;;;6.18;;
36547;SDS011;22551;52.206;4.856;2024-02-16T21:52:37;11.02;;;6.80;;
36547;SDS011;22551;52.206;4.856;2024-02-16T21:57:40;10.40;;;6.20;;
36547;SDS011;22551;52.206;4.856;2024-02-16T22:02:44;12.98;;;6.43;;
36547;SDS011;22551;52.206;4.856;2024-02-16T22:07:46;13.20;;;6.95;;
36547;SDS011;22551;52.206;4.856;2024-02-16T22:12:48;12.45;;;6.57;;
36547;SDS011;22551;52.206;4.856;2024-02-16T22:17:51;18.58;;;6.85;;
36547;SDS011;22551;52.206;4.856;2024-02-16T22:22:54;15.85;;;6.60;;
36547;SDS011;22551;52.206;4.856;2024-02-16T22:27:56;14.40;;;6.20;;
36547;SDS011;22551;52.206;4.856;2024-02-16T22:32:59;14.18;;;6.85;;
36547;SDS011;22551;52.206;4.856;2024-02-16T22:38:03;11.82;;;6.65;;
36547;SDS011;22551;52.206;4.856;2024-02-16T22:43:06;18.45;;;7.70;;
36547;SDS011;22551;52.206;4.856;2024-02-16T22:48:09;16.48;;;6.95;;
36547;SDS011;22551;52.206;4.856;2024-02-16T22:53:14;13.90;;;6.22;;
36547;SDS011;22551;52.206;4.856;2024-02-16T22:58:16;12.30;;;7.10;;
36547;SDS011;22551;52.206;4.856;2024-02-16T23:03:20;11.15;;;6.45;;
36547;SDS011;22551;52.206;4.856;2024-02-16T23:08:23;10.82;;;4.82;;
36547;SDS011;22551;52.206;4.856;2024-02-16T23:13:26;17.45;;;5.00;;
36547;SDS011;22551;52.206;4.856;2024-02-16T23:18:29;13.88;;;5.32;;
36547;SDS011;22551;52.206;4.856;2024-02-16T23:23:32;11.23;;;4.72;;
36547;SDS011;22551;52.206;4.856;2024-02-16T23:28:34;15.10;;;5.65;;
36547;SDS011;22551;52.206;4.856;2024-02-16T23:33:40;21.70;;;3.92;;
36547;SDS011;22551;52.206;4.856;2024-02-16T23:38:43;12.15;;;3.70;;
36547;SDS011;22551;52.206;4.856;2024-02-16T23:43:45;11.27;;;3.97;;
36547;SDS011;22551;52.206;4.856;2024-02-16T23:48:48;8.07;;;3.70;;
36547;SDS011;22551;52.206;4.856;2024-02-16T23:53:51;11.77;;;4.15;;
36547;SDS011;22551;52.206;4.856;2024-02-16T23:58:53;10.02;;;4.00;;
